createdAt,value
2023-02-18T00:01:40.108Z,53.61
2023-02-18T00:04:08.017Z,53.77
2023-02-18T00:06:36.914Z,53.52
2023-02-18T00:09:06.382Z,53.59
2023-02-18T00:11:37.338Z,53.46
2023-02-18T00:14:11.977Z,53.55
2023-02-18T00:16:42.205Z,53.60
2023-02-18T00:19:18.152Z,53.44
2023-02-18T00:21:46.862Z,53.54
2023-02-18T00:24:16.335Z,53.63
2023-02-18T00:26:44.611Z,53.51
2023-02-18T00:29:12.664Z,53.53
2023-02-18T00:31:41.512Z,53.36
2023-02-18T00:34:12.009Z,53.44
2023-02-18T00:36:40.291Z,53.50
2023-02-18T00:39:10.047Z,53.52
2023-02-18T00:41:38.000Z,53.48
2023-02-18T00:44:07.013Z,53.53
2023-02-18T00:46:35.602Z,53.71
2023-02-18T00:49:05.166Z,53.48
2023-02-18T00:51:33.756Z,53.51
2023-02-18T00:54:01.601Z,53.49
2023-02-18T00:56:29.522Z,53.61
2023-02-18T00:58:57.371Z,53.60
2023-02-18T01:01:26.243Z,53.48
2023-02-18T01:03:54.402Z,53.43
2023-02-18T01:06:22.953Z,53.60
2023-02-18T01:08:50.945Z,53.51
2023-02-18T01:11:19.414Z,53.57
2023-02-18T01:13:47.433Z,53.56
2023-02-18T01:16:15.319Z,53.56
2023-02-18T01:18:43.630Z,53.40
2023-02-18T01:21:12.325Z,53.36
2023-02-18T01:23:42.755Z,53.44
2023-02-18T01:26:11.735Z,53.40
2023-02-18T01:28:41.497Z,53.31
2023-02-18T01:31:12.771Z,53.25
2023-02-18T01:33:40.761Z,53.30
2023-02-18T01:36:11.148Z,53.23
2023-02-18T01:38:39.903Z,53.20
2023-02-18T01:41:07.726Z,53.11
2023-02-18T01:43:36.175Z,53.17
2023-02-18T01:46:20.645Z,53.10
2023-02-18T01:48:56.264Z,53.18
2023-02-18T01:51:41.879Z,53.18
2023-02-18T01:54:16.727Z,53.21
2023-02-18T01:57:02.860Z,53.18
2023-02-18T01:59:48.777Z,53.09
2023-02-18T02:02:21.498Z,53.14
2023-02-18T02:04:49.910Z,53.28
2023-02-18T02:07:20.948Z,53.34
2023-02-18T02:09:51.345Z,53.39
2023-02-18T02:12:56.739Z,53.29
2023-02-18T02:15:49.526Z,53.25
2023-02-18T02:18:38.554Z,53.30
2023-02-18T02:21:39.424Z,53.32
2023-02-18T02:24:31.652Z,53.40
2023-02-18T02:27:23.380Z,53.50
2023-02-18T02:30:51.532Z,53.51
2023-02-18T02:33:43.605Z,53.62
2023-02-18T02:36:24.800Z,53.42
2023-02-18T02:39:17.326Z,53.55
2023-02-18T02:42:19.978Z,53.58
2023-02-18T02:45:04.266Z,53.47
2023-02-18T02:47:57.134Z,53.58
2023-02-18T02:51:00.132Z,53.82
2023-02-18T02:53:33.820Z,53.78
2023-02-18T02:56:25.610Z,53.79
2023-02-18T02:59:04.355Z,53.57
2023-02-18T03:02:18.106Z,53.66
2023-02-18T03:05:12.083Z,53.69
2023-02-18T03:08:00.908Z,53.95
2023-02-18T03:10:34.803Z,53.94
2023-02-18T03:13:26.022Z,53.78
2023-02-18T03:16:00.651Z,53.92
2023-02-18T03:19:07.634Z,53.74
2023-02-18T03:21:44.729Z,53.90
2023-02-18T03:24:25.143Z,53.79
2023-02-18T03:26:59.596Z,53.78
2023-02-18T03:29:28.907Z,53.63
2023-02-18T03:32:02.972Z,53.78
2023-02-18T03:34:38.196Z,53.77
2023-02-18T03:37:08.804Z,53.88
2023-02-18T03:39:39.849Z,53.77
2023-02-18T03:42:07.886Z,53.89
2023-02-18T03:44:35.924Z,53.78
2023-02-18T03:47:04.219Z,53.57
2023-02-18T03:49:32.179Z,53.75
2023-02-18T03:52:01.602Z,53.69
2023-02-18T03:54:29.610Z,53.78
2023-02-18T03:56:57.378Z,53.78
2023-02-18T03:59:25.211Z,53.89
2023-02-18T04:01:53.019Z,53.85
2023-02-18T04:04:20.866Z,53.81
2023-02-18T04:06:48.643Z,53.89
2023-02-18T04:09:16.322Z,53.94
2023-02-18T04:11:44.096Z,53.93
2023-02-18T04:14:14.450Z,53.82
2023-02-18T04:16:42.735Z,53.97
2023-02-18T04:19:10.626Z,54.09
2023-02-18T04:21:38.367Z,53.92
2023-02-18T04:24:06.364Z,53.88
2023-02-18T04:26:34.278Z,53.96
2023-02-18T04:29:02.109Z,53.84
2023-02-18T04:31:30.217Z,53.89
2023-02-18T04:33:58.258Z,54.07
2023-02-18T04:36:25.988Z,53.94
2023-02-18T04:38:53.902Z,53.95
2023-02-18T04:41:21.612Z,53.84
2023-02-18T04:43:49.304Z,53.92
2023-02-18T04:46:17.205Z,53.80
2023-02-18T04:48:45.463Z,53.89
2023-02-18T04:51:13.320Z,53.90
2023-02-18T04:53:41.050Z,53.88
2023-02-18T04:56:09.558Z,53.83
2023-02-18T04:58:37.642Z,53.77
2023-02-18T05:01:05.597Z,53.75
2023-02-18T05:03:33.782Z,53.72
2023-02-18T05:06:01.562Z,53.77
2023-02-18T05:08:29.263Z,53.89
2023-02-18T05:10:57.008Z,53.92
2023-02-18T05:13:24.742Z,53.91
2023-02-18T05:15:52.933Z,53.92
2023-02-18T05:18:20.768Z,53.91
2023-02-18T05:20:48.663Z,53.87
2023-02-18T05:23:16.707Z,53.77
2023-02-18T05:25:44.661Z,54.00
2023-02-18T05:28:12.651Z,53.89
2023-02-18T05:30:40.469Z,53.78
2023-02-18T05:33:08.211Z,53.79
2023-02-18T05:35:36.023Z,53.71
2023-02-18T05:38:03.892Z,53.85
2023-02-18T05:40:31.771Z,53.83
2023-02-18T05:42:59.714Z,53.62
2023-02-18T05:45:27.637Z,53.73
2023-02-18T05:47:55.335Z,53.68
2023-02-18T05:50:23.330Z,53.83
2023-02-18T05:52:51.102Z,53.91
2023-02-18T05:55:19.365Z,53.85
2023-02-18T05:57:47.110Z,53.72
2023-02-18T06:00:15.643Z,53.89
2023-02-18T06:02:43.375Z,53.93
2023-02-18T06:05:11.241Z,53.77
2023-02-18T06:07:38.982Z,53.93
2023-02-18T06:10:07.901Z,54.12
2023-02-18T06:12:35.818Z,53.99
2023-02-18T06:15:04.214Z,54.21
2023-02-18T06:17:32.080Z,54.33
2023-02-18T06:19:59.817Z,54.28
2023-02-18T06:22:27.764Z,54.18
2023-02-18T06:24:55.477Z,54.33
2023-02-18T06:27:23.439Z,54.40
2023-02-18T06:29:51.158Z,54.13
2023-02-18T06:32:18.989Z,54.23
2023-02-18T06:34:47.132Z,54.37
2023-02-18T06:37:14.844Z,54.39
2023-02-18T06:39:42.705Z,54.40
2023-02-18T06:42:10.777Z,54.39
2023-02-18T06:44:38.650Z,54.51
2023-02-18T06:47:07.295Z,54.53
2023-02-18T06:49:36.402Z,54.37
2023-02-18T06:52:05.289Z,54.44
2023-02-18T06:54:34.407Z,54.56
2023-02-18T06:57:02.216Z,54.44
2023-02-18T06:59:29.902Z,54.54
2023-02-18T07:01:57.875Z,54.58
2023-02-18T07:04:25.615Z,54.63
2023-02-18T07:06:53.359Z,54.58
2023-02-18T07:09:21.096Z,54.64
2023-02-18T07:11:49.018Z,54.63
2023-02-18T07:14:16.907Z,54.45
2023-02-18T07:16:44.775Z,54.58
2023-02-18T07:19:14.629Z,54.49
2023-02-18T07:21:43.459Z,54.52
2023-02-18T07:24:11.348Z,54.58
2023-02-18T07:26:39.479Z,54.59
2023-02-18T07:29:07.180Z,54.53
2023-02-18T07:31:35.072Z,54.52
2023-02-18T07:34:02.837Z,54.51
2023-02-18T07:36:30.586Z,54.34
2023-02-18T07:38:58.298Z,54.32
2023-02-18T07:41:26.809Z,54.30
2023-02-18T07:43:54.586Z,54.36
2023-02-18T07:46:22.670Z,54.22
2023-02-18T07:48:50.413Z,54.32
2023-02-18T07:51:18.138Z,54.11
2023-02-18T07:53:46.002Z,54.25
2023-02-18T07:56:13.758Z,54.21
2023-02-18T07:58:41.611Z,54.18
2023-02-18T08:01:13.116Z,53.94
2023-02-18T08:03:40.936Z,54.31
2023-02-18T08:06:19.357Z,54.37
2023-02-18T08:08:47.270Z,54.07
2023-02-18T08:11:19.545Z,54.09
2023-02-18T08:13:49.000Z,53.86
2023-02-18T08:16:19.189Z,53.78
2023-02-18T08:18:48.556Z,53.65
2023-02-18T08:21:18.031Z,53.55
2023-02-18T08:23:45.970Z,53.48
2023-02-18T08:26:14.526Z,53.33
2023-02-18T08:28:47.170Z,53.15
2023-02-18T08:31:25.819Z,53.09
2023-02-18T08:33:56.186Z,53.09
2023-02-18T08:36:24.585Z,52.84
2023-02-18T08:38:52.433Z,52.76
2023-02-18T08:41:20.527Z,52.69
2023-02-18T08:43:48.901Z,52.62
2023-02-18T08:46:24.880Z,52.44
2023-02-18T08:48:55.190Z,52.40
2023-02-18T08:51:23.520Z,52.26
2023-02-18T08:54:11.170Z,52.23
2023-02-18T08:56:39.737Z,52.16
2023-02-18T08:59:27.472Z,52.15
2023-02-18T09:02:15.640Z,51.63
2023-02-18T09:04:43.675Z,51.87
2023-02-18T09:07:11.584Z,51.82
2023-02-18T09:09:39.353Z,51.61
2023-02-18T09:12:07.680Z,51.39
2023-02-18T09:14:35.479Z,51.49
2023-02-18T09:17:03.397Z,51.18
2023-02-18T09:19:31.223Z,51.23
2023-02-18T09:22:00.745Z,51.25
2023-02-18T09:24:28.870Z,51.14
2023-02-18T09:26:56.700Z,50.90
2023-02-18T09:29:24.766Z,51.05
2023-02-18T09:31:52.620Z,50.64
2023-02-18T09:34:20.391Z,50.61
2023-02-18T09:36:48.228Z,50.40
2023-02-18T09:39:18.023Z,50.36
2023-02-18T09:41:54.121Z,50.19
2023-02-18T09:44:40.283Z,50.18
2023-02-18T09:47:20.085Z,50.35
2023-02-18T09:50:05.529Z,49.89
2023-02-18T09:52:38.335Z,50.13
2023-02-18T09:55:23.993Z,49.50
2023-02-18T09:57:56.323Z,49.72
2023-02-18T10:00:52.506Z,49.55
2023-02-18T10:03:25.484Z,49.27
2023-02-18T10:06:01.214Z,49.26
2023-02-18T10:08:40.281Z,49.09
2023-02-18T10:11:42.293Z,48.94
2023-02-18T10:14:13.630Z,48.99
2023-02-18T10:16:43.162Z,49.43
2023-02-18T10:19:34.650Z,49.41
2023-02-18T10:22:05.353Z,49.70
2023-02-18T10:24:44.251Z,49.56
2023-02-18T10:27:25.173Z,49.51
2023-02-18T10:29:54.455Z,49.74
2023-02-18T10:32:34.306Z,49.27
2023-02-18T10:36:25.288Z,49.18
2023-02-18T10:39:32.278Z,48.83
2023-02-18T10:42:29.379Z,48.63
2023-02-18T10:45:28.774Z,48.71
2023-02-18T10:48:28.055Z,48.22
2023-02-18T10:50:58.686Z,47.92
2023-02-18T10:53:38.818Z,47.46
2023-02-18T10:56:08.352Z,47.13
2023-02-18T10:58:46.090Z,46.66
2023-02-18T11:01:17.580Z,46.92
2023-02-18T11:03:49.106Z,47.14
2023-02-18T11:06:41.016Z,47.08
2023-02-18T11:09:33.765Z,46.87
2023-02-18T11:12:14.110Z,46.98
2023-02-18T11:14:49.272Z,46.88
2023-02-18T11:17:28.109Z,46.92
2023-02-18T11:20:02.139Z,46.79
2023-02-18T11:22:41.463Z,46.99
2023-02-18T11:25:28.364Z,46.77
2023-02-18T11:28:00.450Z,46.86
2023-02-18T11:30:34.853Z,46.67
2023-02-18T11:33:09.982Z,46.37
2023-02-18T11:35:38.261Z,46.86
2023-02-18T11:38:36.750Z,46.48
2023-02-18T11:41:10.306Z,46.83
2023-02-18T11:43:45.613Z,46.76
2023-02-18T11:46:27.166Z,46.38
2023-02-18T11:48:56.050Z,46.70
2023-02-18T11:51:33.086Z,46.45
2023-02-18T11:54:05.268Z,46.63
2023-02-18T11:56:36.190Z,46.74
2023-02-18T11:59:04.918Z,46.79
2023-02-18T12:01:47.647Z,46.48
2023-02-18T12:04:42.891Z,46.43
2023-02-18T12:07:31.837Z,46.30
2023-02-18T12:10:11.942Z,46.17
2023-02-18T12:13:04.949Z,46.24
2023-02-18T12:15:52.821Z,46.39
2023-02-18T12:18:57.711Z,46.02
2023-02-18T12:21:55.555Z,46.36
2023-02-18T12:24:33.777Z,46.33
2023-02-18T12:27:22.631Z,46.14
2023-02-18T12:30:33.032Z,46.04
2023-02-18T12:33:37.406Z,46.13
2023-02-18T12:36:33.085Z,46.22
2023-02-18T12:39:41.408Z,46.15
2023-02-18T12:42:33.495Z,45.91
2023-02-18T12:45:18.524Z,46.05
2023-02-18T12:48:23.289Z,45.93
2023-02-18T12:51:14.985Z,45.93
2023-02-18T12:53:50.275Z,45.82
2023-02-18T12:56:42.662Z,45.52
2023-02-18T12:59:51.376Z,45.26
2023-02-18T13:02:46.511Z,44.93
2023-02-18T13:05:29.237Z,44.84
2023-02-18T13:08:30.842Z,44.94
2023-02-18T13:11:10.918Z,45.25
2023-02-18T13:14:11.963Z,45.12
2023-02-18T13:16:44.861Z,44.78
2023-02-18T13:19:44.313Z,44.64
2023-02-18T13:22:16.288Z,44.54
2023-02-18T13:24:48.618Z,44.50
2023-02-18T13:27:48.278Z,44.00
2023-02-18T13:30:36.639Z,43.97
2023-02-18T13:33:36.812Z,43.61
2023-02-18T13:36:23.702Z,43.78
2023-02-18T13:39:03.384Z,43.42
2023-02-18T13:41:40.720Z,43.25
2023-02-18T13:44:28.737Z,43.14
2023-02-18T13:46:59.192Z,42.97
2023-02-18T13:49:34.616Z,42.78
2023-02-18T13:52:04.356Z,42.66
2023-02-18T13:54:45.010Z,42.16
2023-02-18T13:57:27.038Z,42.00
2023-02-18T14:00:02.779Z,41.90
2023-02-18T14:02:36.857Z,41.46
2023-02-18T14:05:08.377Z,41.20
2023-02-18T14:07:36.101Z,41.71
2023-02-18T14:10:32.586Z,41.47
2023-02-18T14:13:00.430Z,41.31
2023-02-18T14:15:28.780Z,41.12
2023-02-18T14:18:14.253Z,41.01
2023-02-18T14:20:46.674Z,41.57
2023-02-18T14:23:20.533Z,41.92
2023-02-18T14:26:14.856Z,41.84
2023-02-18T14:28:54.772Z,41.68
2023-02-18T14:31:48.958Z,41.58
2023-02-18T14:35:11.153Z,41.69
2023-02-18T14:38:04.288Z,42.12
2023-02-18T14:41:32.933Z,42.11
2023-02-18T14:45:04.869Z,42.20
2023-02-18T14:47:59.582Z,42.27
2023-02-18T14:50:35.372Z,42.42
2023-02-18T14:53:18.432Z,42.25
2023-02-18T14:56:09.201Z,42.23
2023-02-18T14:58:48.051Z,41.98
2023-02-18T15:01:33.180Z,42.26
2023-02-18T15:04:02.733Z,42.51
2023-02-18T15:06:37.641Z,42.18
2023-02-18T15:09:22.345Z,42.08
2023-02-18T15:11:55.023Z,42.33
2023-02-18T15:14:39.443Z,42.11
2023-02-18T15:17:23.996Z,42.50
2023-02-18T15:19:58.773Z,42.34
2023-02-18T15:22:31.484Z,42.30
2023-02-18T15:25:00.107Z,42.61
2023-02-18T15:27:35.107Z,42.41
2023-02-18T15:30:21.278Z,42.41
2023-02-18T15:32:59.043Z,42.82
2023-02-18T15:35:31.698Z,43.10
2023-02-18T15:38:01.812Z,43.17
2023-02-18T15:40:37.140Z,43.23
2023-02-18T15:43:07.799Z,43.45
2023-02-18T15:45:41.410Z,43.45
2023-02-18T15:48:33.518Z,43.46
2023-02-18T15:51:16.875Z,43.63
2023-02-18T15:53:50.131Z,43.57
2023-02-18T15:56:35.500Z,43.37
2023-02-18T15:59:36.940Z,43.34
2023-02-18T16:02:08.901Z,43.67
2023-02-18T16:04:45.679Z,43.32
2023-02-18T16:07:49.378Z,43.30
2023-02-18T16:10:36.929Z,43.54
2023-02-18T16:13:06.046Z,43.79
2023-02-18T16:15:40.712Z,43.75
2023-02-18T16:18:41.453Z,43.78
2023-02-18T16:21:18.038Z,43.87
2023-02-18T16:23:57.851Z,43.94
2023-02-18T16:26:28.531Z,43.82
2023-02-18T16:29:34.383Z,43.96
2023-02-18T16:32:02.504Z,44.15
2023-02-18T16:34:30.340Z,44.16
2023-02-18T16:37:16.952Z,44.06
2023-02-18T16:39:44.702Z,44.31
2023-02-18T16:42:13.818Z,44.23
2023-02-18T16:44:41.795Z,44.31
2023-02-18T16:47:16.572Z,44.28
2023-02-18T16:49:51.109Z,44.36
2023-02-18T16:52:19.819Z,44.36
2023-02-18T16:54:53.257Z,44.32
2023-02-18T16:57:21.901Z,44.22
2023-02-18T16:59:50.271Z,44.21
2023-02-18T17:02:22.454Z,44.15
2023-02-18T17:04:54.384Z,44.14
2023-02-18T17:07:23.908Z,44.43
2023-02-18T17:09:51.724Z,44.05
2023-02-18T17:12:19.635Z,44.37
2023-02-18T17:14:47.983Z,44.28
2023-02-18T17:17:17.940Z,44.30
2023-02-18T17:19:45.651Z,44.30
2023-02-18T17:22:14.450Z,44.25
2023-02-18T17:24:42.294Z,44.30
2023-02-18T17:27:14.006Z,44.25
2023-02-18T17:29:41.697Z,44.38
2023-02-18T17:32:09.517Z,44.54
2023-02-18T17:34:40.960Z,44.62
2023-02-18T17:37:13.873Z,44.68
2023-02-18T17:39:41.719Z,44.69
2023-02-18T17:42:12.201Z,44.54
2023-02-18T17:44:40.553Z,44.76
2023-02-18T17:47:08.364Z,44.66
2023-02-18T17:49:36.244Z,44.71
2023-02-18T17:52:04.724Z,44.74
2023-02-18T17:54:32.515Z,44.63
2023-02-18T17:57:00.332Z,44.78
2023-02-18T17:59:29.149Z,44.74
2023-02-18T18:01:57.073Z,44.84
2023-02-18T18:04:25.159Z,44.74
2023-02-18T18:06:52.948Z,44.82
2023-02-18T18:09:20.656Z,44.89
2023-02-18T18:11:48.422Z,44.92
2023-02-18T18:14:16.097Z,44.86
2023-02-18T18:16:43.883Z,44.87
2023-02-18T18:19:11.992Z,44.95
2023-02-18T18:21:40.359Z,45.07
2023-02-18T18:24:12.184Z,45.12
2023-02-18T18:26:41.880Z,45.14
2023-02-18T18:29:10.146Z,45.30
2023-02-18T18:31:39.053Z,45.20
2023-02-18T18:34:06.941Z,45.39
2023-02-18T18:36:34.815Z,45.43
2023-02-18T18:39:02.763Z,45.54
2023-02-18T18:41:30.666Z,45.59
2023-02-18T18:43:58.714Z,45.74
2023-02-18T18:46:26.713Z,45.73
2023-02-18T18:48:54.626Z,45.78
2023-02-18T18:51:29.910Z,46.02
2023-02-18T18:53:57.640Z,46.28
2023-02-18T18:56:25.390Z,46.34
2023-02-18T18:58:53.347Z,46.62
2023-02-18T19:01:27.141Z,46.75
2023-02-18T19:03:55.438Z,47.00
2023-02-18T19:06:24.572Z,47.06
2023-02-18T19:08:52.399Z,47.05
2023-02-18T19:11:20.051Z,47.41
2023-02-18T19:13:47.810Z,47.36
2023-02-18T19:16:21.231Z,47.30
2023-02-18T19:18:51.694Z,47.61
2023-02-18T19:21:19.427Z,47.63
2023-02-18T19:23:47.557Z,47.79
2023-02-18T19:26:16.772Z,47.77
2023-02-18T19:28:46.156Z,47.74
2023-02-18T19:31:14.667Z,47.82
2023-02-18T19:33:45.534Z,48.03
2023-02-18T19:36:14.941Z,48.38
2023-02-18T19:38:42.996Z,48.26
2023-02-18T19:41:16.825Z,48.37
2023-02-18T19:43:46.649Z,48.28
2023-02-18T19:46:19.931Z,48.35
2023-02-18T19:48:50.993Z,48.35
2023-02-18T19:51:21.306Z,48.31
2023-02-18T19:53:49.316Z,48.38
2023-02-18T19:56:17.151Z,48.55
2023-02-18T19:58:45.025Z,48.67
2023-02-18T20:01:18.326Z,48.59
2023-02-18T20:03:47.284Z,48.88
2023-02-18T20:06:22.180Z,48.58
2023-02-18T20:08:49.972Z,48.55
2023-02-18T20:11:18.073Z,48.38
2023-02-18T20:13:48.340Z,48.31
2023-02-18T20:16:16.277Z,48.35
2023-02-18T20:18:44.055Z,48.38
2023-02-18T20:21:12.574Z,48.44
2023-02-18T20:23:40.754Z,48.51
2023-02-18T20:26:10.768Z,48.66
2023-02-18T20:28:38.780Z,48.60
2023-02-18T20:31:11.161Z,48.37
2023-02-18T20:33:42.319Z,48.40
2023-02-18T20:36:12.671Z,48.18
2023-02-18T20:38:40.489Z,48.29
2023-02-18T20:41:12.027Z,48.34
2023-02-18T20:43:40.965Z,48.22
2023-02-18T20:46:13.576Z,48.35
2023-02-18T20:48:41.818Z,48.25
2023-02-18T20:51:16.682Z,48.29
2023-02-18T20:53:46.180Z,48.28
2023-02-18T20:56:14.313Z,48.36
2023-02-18T20:58:42.272Z,48.39
2023-02-18T21:01:14.824Z,48.37
2023-02-18T21:03:45.249Z,48.37
2023-02-18T21:06:17.059Z,48.40
2023-02-18T21:08:47.141Z,48.21
2023-02-18T21:11:23.171Z,48.34
2023-02-18T21:13:54.325Z,48.29
2023-02-18T21:16:23.821Z,48.18
2023-02-18T21:18:51.917Z,48.35
2023-02-18T21:21:20.367Z,48.17
2023-02-18T21:23:48.064Z,48.34
2023-02-18T21:26:23.390Z,48.22
2023-02-18T21:28:58.631Z,48.22
2023-02-18T21:31:49.783Z,48.13
2023-02-18T21:34:17.719Z,48.12
2023-02-18T21:36:45.673Z,48.24
2023-02-18T21:39:13.429Z,48.18
2023-02-18T21:41:41.611Z,48.15
2023-02-18T21:44:10.383Z,48.27
2023-02-18T21:46:39.715Z,48.27
2023-02-18T21:49:09.818Z,48.29
2023-02-18T21:52:11.814Z,48.17
2023-02-18T21:54:44.831Z,48.16
2023-02-18T21:57:18.388Z,48.12
2023-02-18T21:59:46.225Z,48.18
2023-02-18T22:02:34.028Z,48.14
2023-02-18T22:05:08.431Z,48.07
2023-02-18T22:07:36.179Z,48.10
2023-02-18T22:10:04.320Z,48.25
2023-02-18T22:12:33.896Z,48.18
2023-02-18T22:15:01.700Z,48.25
2023-02-18T22:17:31.977Z,48.21
2023-02-18T22:19:59.787Z,48.21
2023-02-18T22:22:27.703Z,48.24
2023-02-18T22:24:55.532Z,48.48
2023-02-18T22:27:24.396Z,48.70
2023-02-18T22:29:52.213Z,48.50
2023-02-18T22:32:20.763Z,48.65
2023-02-18T22:34:48.712Z,48.67
2023-02-18T22:37:16.372Z,48.77
2023-02-18T22:39:44.217Z,48.85
2023-02-18T22:42:11.984Z,48.84
2023-02-18T22:44:39.864Z,48.88
2023-02-18T22:47:07.550Z,48.96
2023-02-18T22:49:35.347Z,48.88
2023-02-18T22:52:03.352Z,49.31
2023-02-18T22:54:31.191Z,49.24
2023-02-18T22:56:59.067Z,49.28
2023-02-18T22:59:26.815Z,49.30
2023-02-18T23:01:54.594Z,49.39
2023-02-18T23:04:22.556Z,49.35
2023-02-18T23:06:51.015Z,49.45
2023-02-18T23:09:24.707Z,49.53
2023-02-18T23:11:56.277Z,49.37
2023-02-18T23:14:28.000Z,49.27
2023-02-18T23:17:15.193Z,49.51
2023-02-18T23:19:43.988Z,49.43
2023-02-18T23:22:15.493Z,49.58
2023-02-18T23:24:45.663Z,49.63
2023-02-18T23:27:15.554Z,49.58
2023-02-18T23:29:43.643Z,49.80
2023-02-18T23:32:11.542Z,49.86
2023-02-18T23:34:39.627Z,49.94
2023-02-18T23:37:07.716Z,50.00
2023-02-18T23:39:35.815Z,50.17
2023-02-18T23:42:03.758Z,50.08
2023-02-18T23:44:31.711Z,50.06
2023-02-18T23:47:00.271Z,50.30
2023-02-18T23:49:28.803Z,50.43
2023-02-18T23:51:57.799Z,50.38
2023-02-18T23:54:25.812Z,50.34
2023-02-18T23:56:53.704Z,50.34
2023-02-18T23:59:21.649Z,50.29
